Time;durP1;ratioP1;P1;durP2;ratioP2;P2;SDS_P1;SDS_P2;PMS_P1;PMS_P2;Temp;Humidity;BMP_temperature;BMP_pressure;BME280_temperature;BME280_humidity;BME280_pressure;Samples;Min_cycle;Max_cycle;Signal;HPM_P1;HPM_P2
2024/01/31 00:01:51;;;;;;;12.77;8.15;;;6.70;62.30;;;1.74;100.00;97070.44;4927298;28;20110;-50
2024/01/31 00:04:18;;;;;;;12.55;8.05;;;6.70;62.40;;;1.71;100.00;97058.47;4922368;29;20151;-52
2024/01/31 00:06:50;;;;;;;13.00;8.52;;;6.70;63.30;;;1.73;100.00;97066.19;4926204;29;20038;-49
2024/01/31 00:09:15;;;;;;;12.70;8.17;;;6.70;62.70;;;1.76;100.00;97071.09;4927010;28;20054;-54
2024/01/31 00:11:41;;;;;;;11.65;7.68;;;6.70;62.70;;;1.80;100.00;97070.56;4933011;28;20023;-53
2024/01/31 00:14:08;;;;;;;11.70;6.95;;;6.70;62.90;;;1.80;100.00;97072.41;4921555;29;20023;-51
2024/01/31 00:16:34;;;;;;;12.63;7.82;;;6.70;62.80;;;1.83;100.00;97074.69;4926234;29;20044;-50
2024/01/31 00:19:01;;;;;;;15.98;7.40;;;6.80;63.80;;;1.87;100.00;97065.44;4930093;29;20490;-51
2024/01/31 00:21:27;;;;;;;12.90;8.13;;;6.80;63.00;;;1.90;100.00;97062.47;4931504;29;20157;-50
2024/01/31 00:23:53;;;;;;;14.13;7.85;;;6.80;63.00;;;1.90;100.00;97066.91;4932160;29;20026;-53
2024/01/31 00:26:19;;;;;;;15.65;7.90;;;6.80;63.10;;;1.93;100.00;97066.56;4932323;29;20109;-52
2024/01/31 00:28:45;;;;;;;12.65;7.28;;;6.90;63.20;;;1.99;100.00;97071.94;4947468;28;20113;-54
2024/01/31 00:31:13;;;;;;;14.77;7.88;;;6.90;63.30;;;2.09;100.00;97074.34;4931980;29;20027;-50
2024/01/31 00:33:39;;;;;;;13.68;7.97;;;7.00;63.30;;;2.18;100.00;97067.22;4931276;29;20078;-51
2024/01/31 00:36:06;;;;;;;14.52;7.50;;;7.00;63.40;;;2.25;100.00;97073.41;4931419;29;20038;-52
2024/01/31 00:38:32;;;;;;;12.00;7.40;;;7.10;63.50;;;2.30;100.00;97073.72;4932633;29;20023;-52
2024/01/31 00:40:58;;;;;;;14.20;7.32;;;7.10;63.50;;;2.33;100.00;97059.41;4932666;29;20038;-52
2024/01/31 00:43:23;;;;;;;14.02;7.53;;;7.20;63.60;;;2.40;100.00;97062.94;4929704;29;20028;-50
2024/01/31 00:45:49;;;;;;;13.40;7.82;;;7.20;63.60;;;2.47;100.00;97061.25;4932811;29;20034;-52
2024/01/31 00:48:15;;;;;;;10.50;6.97;;;7.30;63.60;;;2.50;100.00;97064.31;4931208;29;20433;-51
2024/01/31 00:50:41;;;;;;;13.20;7.47;;;7.30;63.60;;;2.53;100.00;97058.72;4932072;29;20038;-52
2024/01/31 00:53:07;;;;;;;12.57;8.13;;;7.40;63.60;;;2.58;100.00;97067.91;4932578;29;20074;-52
2024/01/31 00:55:32;;;;;;;11.20;8.27;;;7.40;63.70;;;2.62;100.00;97061.28;4924908;29;20027;-53
2024/01/31 00:57:58;;;;;;;14.50;7.90;;;7.40;63.70;;;2.68;100.00;97074.53;4932370;29;20386;-53
2024/01/31 01:00:25;;;;;;;12.27;6.88;;;7.50;63.70;;;2.80;100.00;97071.50;4930794;29;20068;-50
2024/01/31 01:02:52;;;;;;;10.95;7.18;;;7.60;63.80;;;2.87;100.00;97083.75;4932182;29;20054;-54
2024/01/31 01:05:18;;;;;;;10.63;6.72;;;7.60;63.70;;;2.92;100.00;97084.03;4932288;29;20027;-51
2024/01/31 01:07:45;;;;;;;10.38;7.00;;;7.70;63.70;;;2.96;100.00;97087.13;4930706;29;20430;-50
2024/01/31 01:10:15;;;;;;;13.57;6.78;;;7.70;63.50;;;2.98;100.00;97087.78;4932589;29;20645;-50
2024/01/31 01:12:42;;;;;;;11.50;6.40;;;7.80;63.50;;;2.98;100.00;97088.56;4930945;29;20645;-54
2024/01/31 01:15:10;;;;;;;11.82;7.05;;;7.80;63.30;;;2.96;100.00;97080.03;4931680;29;20050;-55
2024/01/31 01:17:38;;;;;;;13.18;6.57;;;7.80;63.20;;;2.95;100.00;97083.66;4931385;29;20027;-52
2024/01/31 01:20:08;;;;;;;10.18;6.50;;;7.80;63.00;;;2.86;100.00;97078.66;4929088;29;20512;-53
2024/01/31 01:22:34;;;;;;;12.43;6.57;;;7.80;62.90;;;2.74;100.00;97083.53;4931681;29;20038;-53
2024/01/31 01:25:01;;;;;;;9.38;6.43;;;7.80;62.90;;;2.69;100.00;97077.97;4930645;29;20077;-51
2024/01/31 01:27:26;;;;;;;10.88;6.82;;;7.70;62.80;;;2.59;100.00;97086.13;4930888;29;20051;-53
2024/01/31 01:29:53;;;;;;;12.07;6.80;;;7.70;62.80;;;2.65;100.00;97080.16;4931306;29;20438;-54
2024/01/31 01:32:19;;;;;;;10.65;5.95;;;7.60;62.70;;;2.55;100.00;97083.03;4933541;28;20118;-51
2024/01/31 01:34:46;;;;;;;8.57;5.40;;;7.60;62.70;;;2.52;100.00;97082.59;4931663;29;20157;-50
2024/01/31 01:37:12;;;;;;;9.90;6.40;;;7.50;62.60;;;2.47;100.00;97079.66;4927725;29;20027;-55
2024/01/31 01:39:39;;;;;;;9.73;6.03;;;7.50;62.60;;;2.36;100.00;97075.63;4931909;29;20030;-53
2024/01/31 01:42:05;;;;;;;9.35;5.40;;;7.40;62.60;;;2.32;100.00;97074.38;4930658;29;20042;-54
2024/01/31 01:44:33;;;;;;;8.73;5.43;;;7.40;62.70;;;2.26;100.00;97064.53;4931417;29;20027;-54
2024/01/31 01:47:01;;;;;;;9.18;5.13;;;7.30;62.70;;;2.31;100.00;97067.44;4931227;29;20082;-52
2024/01/31 01:49:29;;;;;;;8.25;5.38;;;7.30;62.80;;;2.29;100.00;97072.09;4930647;29;20027;-53
2024/01/31 01:51:55;;;;;;;10.80;6.20;;;7.30;62.70;;;2.21;100.00;97065.06;4926311;29;20019;-54
2024/01/31 01:54:22;;;;;;;10.45;6.30;;;7.20;62.70;;;2.12;100.00;97074.00;4930434;29;20057;-55
2024/01/31 01:56:50;;;;;;;8.10;5.57;;;7.20;62.70;;;2.16;100.00;97071.81;4931474;29;20026;-52
2024/01/31 01:59:16;;;;;;;9.77;5.10;;;7.20;62.80;;;2.01;100.00;97063.91;4931397;29;20053;-52
2024/01/31 02:01:46;;;;;;;11.18;5.80;;;7.10;62.70;;;2.07;100.00;97071.91;4944970;28;20037;-51
2024/01/31 02:04:13;;;;;;;8.23;5.63;;;7.10;62.80;;;2.09;100.00;97069.91;4931556;29;20051;-53
2024/01/31 02:06:40;;;;;;;9.45;5.30;;;7.10;62.90;;;2.01;100.00;97066.53;4929894;29;20019;-52
2024/01/31 02:09:06;;;;;;;9.60;5.80;;;7.10;62.90;;;2.01;100.00;97064.72;4931190;29;20110;-50
2024/01/31 02:11:34;;;;;;;9.15;5.45;;;7.10;62.80;;;1.94;100.00;97071.63;4931265;29;20027;-55
2024/01/31 02:14:00;;;;;;;7.93;5.50;;;7.00;62.90;;;2.00;100.00;97068.31;4926644;29;20031;-50
2024/01/31 02:16:26;;;;;;;7.53;4.82;;;7.10;63.00;;;2.03;100.00;97070.59;4928726;29;20485;-52
2024/01/31 02:18:52;;;;;;;8.50;5.07;;;7.00;63.00;;;2.04;100.00;97064.38;4923147;29;20513;-55
2024/01/31 02:21:20;;;;;;;9.60;5.10;;;7.00;63.00;;;2.14;100.00;97066.75;4930970;29;20070;-53
2024/01/31 02:23:46;;;;;;;7.63;4.93;;;7.10;63.10;;;2.16;100.00;97064.75;4931134;29;20433;-54
2024/01/31 02:26:11;;;;;;;8.43;5.18;;;7.10;63.10;;;2.21;100.00;97064.25;4928387;29;20038;-55
2024/01/31 02:28:37;;;;;;;7.75;4.90;;;7.10;63.00;;;2.19;100.00;97063.59;4930715;29;20157;-52
2024/01/31 02:31:03;;;;;;;7.90;4.80;;;7.10;63.00;;;2.12;100.00;97067.91;4930039;29;20035;-53
2024/01/31 02:33:29;;;;;;;7.55;5.07;;;7.10;63.00;;;2.02;100.00;97062.91;4929602;29;20034;-52
2024/01/31 02:35:55;;;;;;;9.43;5.18;;;7.10;62.90;;;1.94;100.00;97073.44;4929825;29;20030;-54
2024/01/31 02:38:21;;;;;;;8.27;5.15;;;7.00;62.80;;;1.96;100.00;97068.84;4931118;29;20139;-54
2024/01/31 02:40:47;;;;;;;6.30;4.50;;;7.00;62.90;;;2.01;100.00;97067.34;4931581;29;20504;-54
2024/01/31 02:43:13;;;;;;;7.70;4.85;;;7.00;62.90;;;2.00;100.00;97067.50;4925798;29;20020;-51
2024/01/31 02:45:38;;;;;;;7.13;4.97;;;7.00;62.90;;;2.02;100.00;97071.59;4934757;28;20031;-55
2024/01/31 02:48:05;;;;;;;6.55;4.97;;;7.00;62.90;;;1.96;100.00;97060.97;4934181;29;20171;-50
2024/01/31 02:50:32;;;;;;;9.40;5.28;;;7.00;62.90;;;1.93;100.00;97071.81;4949438;28;20504;-50
2024/01/31 02:52:59;;;;;;;7.03;4.97;;;7.00;62.90;;;1.94;100.00;97074.25;4947179;28;20030;-50
2024/01/31 02:55:25;;;;;;;7.55;5.10;;;7.00;62.90;;;1.83;100.00;97072.84;4933430;29;20422;-50
2024/01/31 02:57:51;;;;;;;7.70;4.95;;;6.90;62.80;;;1.81;100.00;97064.31;4934376;29;20026;-52
2024/01/31 03:00:17;;;;;;;7.47;4.65;;;6.90;63.20;;;1.77;100.00;97062.22;4933505;29;20031;-53
2024/01/31 03:02:43;;;;;;;7.15;4.50;;;6.80;62.80;;;1.69;100.00;97062.25;4930048;29;20761;-50
2024/01/31 03:05:11;;;;;;;7.25;4.85;;;6.80;62.80;;;1.56;100.00;97061.00;4934292;29;20039;-50
2024/01/31 03:07:37;;;;;;;7.22;4.57;;;6.70;62.80;;;1.64;100.00;97057.53;4932575;29;20153;-52
2024/01/31 03:10:03;;;;;;;11.85;4.70;;;6.70;62.90;;;1.65;100.00;97063.59;4934546;29;20762;-51
2024/01/31 03:12:29;;;;;;;6.72;4.38;;;6.60;62.90;;;1.58;100.00;97056.41;4929759;29;20086;-52
2024/01/31 03:14:56;;;;;;;9.20;4.78;;;6.60;62.90;;;1.52;100.00;97059.72;4933978;29;20051;-51
2024/01/31 03:17:22;;;;;;;7.07;4.68;;;6.60;63.00;;;1.49;100.00;97059.25;4933797;29;20035;-55
2024/01/31 03:19:48;;;;;;;7.32;4.35;;;6.50;63.00;;;1.44;100.00;97051.88;4931448;29;20367;-52
2024/01/31 03:22:13;;;;;;;7.15;4.68;;;6.50;63.00;;;1.46;100.00;97070.09;4932696;28;20035;-54
2024/01/31 03:24:39;;;;;;;8.95;4.60;;;6.50;63.10;;;1.41;100.00;97056.66;4931143;29;20028;-51
2024/01/31 03:27:06;;;;;;;7.57;4.53;;;6.40;63.20;;;1.39;100.00;97057.66;4933950;29;20430;-50
2024/01/31 03:29:32;;;;;;;9.80;4.97;;;6.40;63.20;;;1.23;100.00;97059.53;4933788;29;20102;-51
2024/01/31 03:31:58;;;;;;;8.20;4.68;;;6.30;63.20;;;1.26;100.00;97052.13;4929168;29;20028;-51
2024/01/31 03:34:24;;;;;;;6.43;4.30;;;6.30;63.20;;;1.31;100.00;97062.09;4932078;29;20117;-52
2024/01/31 03:36:50;;;;;;;8.48;4.43;;;6.30;63.30;;;1.26;100.00;97054.75;4933553;29;20033;-50
2024/01/31 03:39:18;;;;;;;7.03;4.43;;;6.30;63.30;;;1.22;100.00;97053.44;4934060;29;20027;-51
2024/01/31 03:41:45;;;;;;;7.90;4.75;;;6.30;63.30;;;1.22;100.00;97055.25;4932186;29;20409;-51
2024/01/31 03:44:13;;;;;;;6.72;4.03;;;6.20;63.30;;;1.15;100.00;97057.72;4928547;29;20027;-50
2024/01/31 03:46:39;;;;;;;6.72;4.40;;;6.20;63.30;;;1.14;100.00;97056.09;4932948;29;20027;-50
2024/01/31 03:49:05;;;;;;;7.97;4.90;;;6.20;63.30;;;1.12;100.00;97064.13;4936650;28;20029;-50
2024/01/31 03:51:31;;;;;;;5.93;4.30;;;6.10;63.40;;;1.12;100.00;97063.31;4932886;29;20031;-50
2024/01/31 03:53:57;;;;;;;6.78;4.68;;;6.10;63.50;;;1.03;100.00;97059.91;4931938;29;20033;-51
2024/01/31 03:56:23;;;;;;;6.70;4.10;;;6.10;63.50;;;0.96;100.00;97063.38;4927134;29;20043;-53
2024/01/31 03:58:49;;;;;;;7.00;4.13;;;6.00;63.50;;;0.97;100.00;97076.31;4933736;29;20082;-51
2024/01/31 04:01:17;;;;;;;6.35;4.35;;;6.00;63.60;;;1.02;100.00;97073.19;4932903;29;20038;-51
2024/01/31 04:03:46;;;;;;;8.30;4.35;;;6.00;63.60;;;1.00;100.00;97067.28;4932979;29;20445;-53
2024/01/31 04:06:12;;;;;;;7.22;4.10;;;6.00;64.50;;;0.92;100.00;97074.19;4946863;28;20039;-51
2024/01/31 04:08:38;;;;;;;9.18;4.60;;;5.90;63.50;;;0.86;100.00;97069.63;4933349;29;20138;-50
2024/01/31 04:11:05;;;;;;;5.82;4.28;;;5.90;63.50;;;0.87;100.00;97067.81;4931796;28;20118;-51
2024/01/31 04:13:31;;;;;;;8.18;4.70;;;5.90;63.60;;;0.87;100.00;97073.88;4932124;29;20023;-52
2024/01/31 04:15:58;;;;;;;6.63;4.47;;;5.90;63.70;;;0.85;100.00;97080.31;4933016;28;20053;-51
2024/01/31 04:18:24;;;;;;;8.20;4.32;;;5.90;63.70;;;0.81;100.00;97071.91;4930432;29;20051;-52
2024/01/31 04:20:51;;;;;;;5.50;4.00;;;5.80;63.60;;;0.87;100.00;97075.69;4933139;29;20450;-52
2024/01/31 04:23:17;;;;;;;8.10;4.70;;;5.80;63.70;;;0.83;100.00;97077.81;4929936;29;20023;-50
2024/01/31 04:25:43;;;;;;;10.90;4.60;;;5.80;63.70;;;0.76;100.00;97073.44;4932033;29;20043;-51
2024/01/31 04:28:12;;;;;;;6.65;4.63;;;5.80;63.80;;;0.73;100.00;97076.38;4933125;29;20030;-50
2024/01/31 04:30:38;;;;;;;8.82;4.70;;;5.70;63.70;;;0.69;100.00;97075.91;4931315;29;20109;-53
2024/01/31 04:33:04;;;;;;;7.63;4.80;;;5.70;63.70;;;0.65;100.00;97071.94;4931712;28;20019;-52
2024/01/31 04:35:30;;;;;;;8.25;4.57;;;5.70;63.80;;;0.61;100.00;97076.72;4932797;29;20085;-50
2024/01/31 04:37:55;;;;;;;7.45;4.78;;;5.60;63.80;;;0.58;100.00;97077.03;4932065;29;20023;-51
2024/01/31 04:40:21;;;;;;;7.50;4.55;;;5.60;63.80;;;0.60;100.00;97080.31;4933058;29;20490;-57
2024/01/31 04:42:47;;;;;;;7.53;3.90;;;5.60;63.90;;;0.64;100.00;97081.63;4928483;29;20026;-52
2024/01/31 04:45:14;;;;;;;8.25;4.00;;;5.60;64.00;;;0.59;100.00;97081.28;4929442;29;20418;-52
2024/01/31 04:47:44;;;;;;;9.48;4.30;;;5.60;64.10;;;0.55;100.00;97076.56;4932605;29;20102;-54
2024/01/31 04:50:11;;;;;;;5.82;4.47;;;5.60;64.00;;;0.55;100.00;97069.50;4931694;29;20109;-51
2024/01/31 04:52:37;;;;;;;7.80;4.50;;;5.50;64.00;;;0.58;100.00;97086.72;4931929;29;20046;-50
2024/01/31 04:55:04;;;;;;;7.20;4.32;;;5.50;64.10;;;0.57;100.00;97080.66;4930264;29;20042;-50
2024/01/31 04:57:31;;;;;;;6.82;4.00;;;5.50;64.10;;;0.57;100.00;97079.84;4932344;29;20077;-50
2024/01/31 04:59:58;;;;;;;6.60;4.18;;;5.50;64.10;;;0.61;100.00;97081.94;4925894;29;20054;-50
2024/01/31 05:02:24;;;;;;;5.10;3.83;;;5.50;64.30;;;0.63;100.00;97081.81;4931455;29;20553;-50
2024/01/31 05:04:49;;;;;;;5.75;3.72;;;5.50;64.20;;;0.60;100.00;97072.47;4932551;29;20065;-50
2024/01/31 05:07:15;;;;;;;6.18;3.80;;;5.50;64.20;;;0.61;100.00;97078.50;4930660;29;20463;-51
2024/01/31 05:09:41;;;;;;;7.53;3.88;;;5.50;64.10;;;0.62;100.00;97078.34;4932428;29;20073;-50
2024/01/31 05:12:07;;;;;;;6.97;4.10;;;5.50;64.10;;;0.58;100.00;97077.03;4931101;29;20015;-50
2024/01/31 05:14:33;;;;;;;5.72;3.75;;;5.50;64.20;;;0.54;100.00;97075.75;4931696;29;20043;-53
2024/01/31 05:16:59;;;;;;;7.22;3.97;;;5.50;64.20;;;0.50;100.00;97084.91;4927783;29;20034;-53
2024/01/31 05:19:25;;;;;;;6.63;3.63;;;5.50;64.20;;;0.57;100.00;97093.75;4928874;29;20039;-50
2024/01/31 05:21:52;;;;;;;7.10;3.65;;;5.50;64.20;;;0.56;100.00;97083.41;4928986;28;20031;-51
2024/01/31 05:24:19;;;;;;;8.50;3.80;;;5.50;64.10;;;0.46;100.00;97092.28;4926890;29;20035;-53
2024/01/31 05:26:48;;;;;;;9.00;3.90;;;5.40;64.20;;;0.40;100.00;97086.88;4930819;29;20113;-51
2024/01/31 05:29:15;;;;;;;6.15;3.85;;;5.40;64.10;;;0.38;100.00;97081.81;4946747;28;20437;-53
2024/01/31 05:31:42;;;;;;;7.15;3.80;;;5.40;64.00;;;0.41;100.00;97091.16;4930951;29;20030;-55
2024/01/31 05:34:08;;;;;;;6.32;3.97;;;5.40;64.10;;;0.39;100.00;97087.88;4931719;29;20166;-54
2024/01/31 05:36:34;;;;;;;8.05;3.72;;;5.40;64.10;;;0.38;100.00;97086.25;4931246;29;20114;-53
2024/01/31 05:39:00;;;;;;;5.57;4.00;;;5.40;64.10;;;0.35;100.00;97090.00;4932152;29;20038;-56
2024/01/31 05:41:25;;;;;;;4.95;3.67;;;5.40;64.10;;;0.39;100.00;97093.09;4931852;29;20054;-55
2024/01/31 05:43:51;;;;;;;5.50;3.30;;;5.30;64.20;;;0.41;100.00;97086.72;4927737;29;20042;-53
2024/01/31 05:46:18;;;;;;;9.43;4.07;;;5.40;64.30;;;0.37;100.00;97093.25;4931959;29;20394;-53
2024/01/31 05:48:47;;;;;;;10.93;4.00;;;5.40;64.20;;;0.28;100.00;97091.63;4931125;29;20123;-51
2024/01/31 05:51:14;;;;;;;5.05;3.70;;;5.30;64.10;;;0.24;100.00;97098.16;4931827;29;20065;-54
2024/01/31 05:53:41;;;;;;;6.13;3.67;;;5.30;64.00;;;0.21;100.00;97099.31;4931263;29;20723;-53
2024/01/31 05:56:07;;;;;;;5.93;3.45;;;5.30;64.00;;;0.13;100.00;97098.50;4945480;28;20398;-52
2024/01/31 05:58:33;;;;;;;6.10;3.80;;;5.20;64.10;;;0.14;100.00;97105.38;4931574;28;20065;-55
2024/01/31 06:01:00;;;;;;;5.18;3.58;;;5.20;64.10;;;0.13;100.00;97104.56;4930840;29;20038;-51
2024/01/31 06:03:28;;;;;;;6.50;3.70;;;5.20;64.20;;;0.14;100.00;97100.13;4931029;29;20023;-53
2024/01/31 06:05:54;;;;;;;7.05;3.90;;;5.20;64.20;;;0.14;100.00;97111.44;4931267;29;20073;-52
2024/01/31 06:08:23;;;;;;;7.03;3.70;;;5.10;64.10;;;0.10;100.00;97104.06;4930949;29;20023;-50
2024/01/31 06:10:53;;;;;;;6.85;4.07;;;5.10;64.20;;;0.07;100.00;97102.59;4931488;29;20430;-52
2024/01/31 06:13:22;;;;;;;5.78;3.63;;;5.10;64.30;;;0.06;100.00;97102.72;4930288;29;20387;-56
2024/01/31 06:15:48;;;;;;;5.72;3.35;;;5.10;64.30;;;0.01;100.00;97099.78;4931872;29;20043;-53
2024/01/31 06:18:17;;;;;;;8.52;4.10;;;5.00;64.20;;;-0.01;100.00;97097.31;4976838;23;20501;-53
2024/01/31 06:20:43;;;;;;;6.57;3.90;;;5.00;64.30;;;0.00;100.00;97101.59;4971787;28;20496;-57
2024/01/31 06:23:11;;;;;;;6.38;3.90;;;5.00;64.30;;;-0.04;100.00;97110.75;4973347;28;20033;-53
2024/01/31 06:25:37;;;;;;;7.88;4.22;;;5.00;64.40;;;-0.01;100.00;97111.22;4971040;28;20608;-55
2024/01/31 06:28:05;;;;;;;8.20;3.80;;;5.00;64.50;;;0.01;100.00;97108.47;4975787;28;20405;-56
2024/01/31 06:30:48;;;;;;;6.18;3.95;;;4.90;64.50;;;-0.02;100.00;97106.97;4946302;28;20566;-54
2024/01/31 06:33:17;;;;;;;7.70;4.32;;;5.00;64.60;;;-0.09;100.00;97116.47;4947556;28;20026;-54
2024/01/31 06:35:43;;;;;;;8.48;4.50;;;4.90;64.50;;;-0.05;100.00;97120.41;4951613;28;20460;-54
2024/01/31 06:38:09;;;;;;;9.05;3.80;;;4.90;64.50;;;-0.03;100.00;97128.13;4944289;28;20026;-54
2024/01/31 06:40:36;;;;;;;6.05;3.75;;;4.90;64.60;;;-0.01;100.00;97128.75;4942309;28;20500;-54
2024/01/31 06:43:02;;;;;;;8.82;4.03;;;4.90;64.60;;;-0.02;100.00;97121.88;4948460;28;20454;-55
2024/01/31 06:45:28;;;;;;;8.77;3.67;;;4.90;64.70;;;-0.07;100.00;97132.81;4948595;28;20117;-52
2024/01/31 06:47:54;;;;;;;4.57;3.35;;;4.90;64.70;;;-0.04;100.00;97129.88;4943524;28;20112;-52
2024/01/31 06:50:21;;;;;;;4.70;3.50;;;4.90;64.70;;;-0.01;100.00;97137.44;4949088;28;20035;-51
2024/01/31 06:52:47;;;;;;;5.85;3.42;;;5.00;64.80;;;-0.07;100.00;97134.63;4946703;28;20019;-53
2024/01/31 06:55:14;;;;;;;5.90;3.53;;;5.00;64.70;;;-0.11;100.00;97131.50;4947863;28;20018;-52
2024/01/31 06:57:42;;;;;;;9.60;3.47;;;5.00;64.70;;;-0.09;100.00;97139.22;4947658;28;20488;-52
2024/01/31 07:00:14;;;;;;;6.13;3.70;;;4.90;64.60;;;-0.10;100.00;97134.94;4944053;28;20113;-52
2024/01/31 07:02:40;;;;;;;4.63;3.45;;;4.90;64.60;;;-0.08;100.00;97138.25;4950105;28;20027;-51
2024/01/31 07:05:06;;;;;;;7.90;3.83;;;4.90;64.60;;;-0.10;100.00;97142.81;4950806;28;20050;-52
2024/01/31 07:07:34;;;;;;;8.52;3.40;;;4.90;64.50;;;-0.12;100.00;97137.75;4948325;28;20405;-52
2024/01/31 07:09:59;;;;;;;7.25;3.90;;;4.90;64.50;;;-0.22;100.00;97136.22;4951753;28;20129;-52
2024/01/31 07:12:25;;;;;;;6.72;3.70;;;4.90;64.50;;;-0.24;100.00;97137.22;4951049;28;20113;-54
2024/01/31 07:14:52;;;;;;;8.32;3.35;;;4.90;64.50;;;-0.21;100.00;97138.69;4946255;28;20038;-52
2024/01/31 07:17:17;;;;;;;7.47;3.58;;;4.90;64.50;;;-0.18;100.00;97148.03;4949617;28;20070;-56
2024/01/31 07:19:43;;;;;;;4.82;3.33;;;4.90;64.60;;;-0.18;100.00;97151.47;4945447;28;20210;-56
2024/01/31 07:22:10;;;;;;;5.70;3.20;;;4.90;64.60;;;-0.13;100.00;97149.19;4949205;28;20030;-52
2024/01/31 07:24:36;;;;;;;5.05;3.38;;;5.00;64.70;;;-0.08;100.00;97149.53;4944134;28;20041;-53
2024/01/31 07:27:02;;;;;;;4.93;3.35;;;5.00;64.70;;;-0.05;100.00;97151.03;4946192;28;20025;-55
2024/01/31 07:29:29;;;;;;;4.97;3.15;;;5.10;64.80;;;0.01;100.00;97154.81;4946781;28;20030;-52
2024/01/31 07:31:55;;;;;;;5.45;3.35;;;5.20;64.80;;;0.05;100.00;97158.75;4946840;28;20040;-54
2024/01/31 07:34:22;;;;;;;5.45;3.38;;;5.20;64.70;;;0.11;100.00;97161.53;4940531;28;20023;-55
2024/01/31 07:36:48;;;;;;;8.43;3.35;;;5.30;64.70;;;0.17;100.00;97168.75;4948808;28;20518;-54
2024/01/31 07:39:14;;;;;;;5.25;3.25;;;5.30;64.60;;;0.22;100.00;97170.91;4945027;28;20034;-52
2024/01/31 07:41:44;;;;;;;6.55;3.20;;;5.40;64.60;;;0.27;100.00;97166.00;4946354;28;20042;-51
2024/01/31 07:44:09;;;;;;;7.82;3.60;;;5.50;64.60;;;0.30;100.00;97173.53;4949459;28;20030;-52
2024/01/31 07:46:35;;;;;;;4.80;3.22;;;5.60;64.60;;;0.42;100.00;97166.19;4944785;28;20409;-52
2024/01/31 07:49:04;;;;;;;4.82;3.05;;;5.70;64.60;;;0.53;100.00;97167.66;4947476;28;20026;-52
2024/01/31 07:51:30;;;;;;;6.07;3.33;;;5.80;64.60;;;0.67;100.00;97174.91;4937428;28;20393;-53
2024/01/31 07:53:55;;;;;;;4.97;3.65;;;6.00;65.50;;;0.78;100.00;97176.38;4949424;28;20030;-52
2024/01/31 07:56:21;;;;;;;7.18;4.53;;;6.10;64.60;;;0.89;100.00;97173.44;4950690;28;20027;-54
2024/01/31 07:58:47;;;;;;;6.50;3.55;;;6.30;64.60;;;1.04;100.00;97174.41;4945820;28;20478;-54
2024/01/31 08:01:13;;;;;;;7.65;4.13;;;6.50;64.50;;;1.20;100.00;97172.75;4946723;28;20118;-51
2024/01/31 08:03:42;;;;;;;6.45;3.28;;;6.60;64.40;;;1.33;100.00;97165.16;4943952;28;20038;-53
2024/01/31 08:06:08;;;;;;;5.40;3.40;;;6.80;64.40;;;1.47;100.00;97163.63;4944566;28;20509;-52
2024/01/31 08:08:36;;;;;;;6.88;3.40;;;7.00;64.30;;;1.62;100.00;97162.75;4945239;28;20057;-53
2024/01/31 08:11:04;;;;;;;5.30;2.97;;;7.20;64.20;;;1.83;100.00;97164.84;4947264;28;20041;-54
2024/01/31 08:13:30;;;;;;;4.90;3.30;;;7.50;64.10;;;2.04;100.00;97169.50;4942113;28;20026;-52
2024/01/31 08:15:56;;;;;;;6.15;3.25;;;7.70;64.00;;;2.21;100.00;97172.03;4946092;28;20066;-52
2024/01/31 08:18:22;;;;;;;5.75;3.20;;;7.90;63.80;;;2.38;100.00;97168.31;4947501;28;20125;-53
2024/01/31 08:20:48;;;;;;;4.85;3.22;;;8.10;63.60;;;2.58;100.00;97168.69;4946953;28;20050;-52
2024/01/31 08:23:14;;;;;;;4.68;3.13;;;8.30;63.40;;;2.77;100.00;97168.22;4946863;28;20089;-53
2024/01/31 08:25:39;;;;;;;6.43;4.07;;;8.50;63.20;;;2.97;100.00;97167.72;4945069;28;20037;-53
2024/01/31 08:28:05;;;;;;;7.00;3.75;;;8.70;63.00;;;3.19;100.00;97176.56;4945075;28;20018;-51
2024/01/31 08:30:31;;;;;;;7.40;3.80;;;9.00;62.90;;;3.39;100.00;97167.16;4948675;28;20054;-52
2024/01/31 08:32:57;;;;;;;6.13;4.28;;;9.20;62.60;;;3.61;100.00;97168.09;4949313;28;20042;-52
2024/01/31 08:35:23;;;;;;;6.13;3.90;;;9.50;62.30;;;3.84;100.00;97172.44;4957736;28;20135;-52
2024/01/31 08:37:49;;;;;;;6.35;4.10;;;9.70;62.00;;;4.01;100.00;97165.13;4945916;28;20057;-51
2024/01/31 08:40:15;;;;;;;4.88;3.58;;;9.80;61.70;;;4.19;100.00;97162.91;4940639;28;20035;-51
2024/01/31 08:42:41;;;;;;;6.88;3.72;;;10.00;61.40;;;4.34;100.00;97166.34;4947159;28;20495;-52
2024/01/31 08:45:09;;;;;;;5.47;3.33;;;10.20;61.10;;;4.47;99.83;97167.50;4949463;28;20062;-53
2024/01/31 08:47:35;;;;;;;5.82;3.40;;;10.40;60.80;;;4.57;96.24;97160.88;4944076;28;20034;-52
2024/01/31 08:50:02;;;;;;;6.15;3.80;;;10.50;60.40;;;4.71;94.35;97161.84;4946799;28;20035;-53
2024/01/31 08:52:28;;;;;;;4.05;2.88;;;10.70;60.00;;;4.84;92.00;97161.97;4941872;28;20023;-49
2024/01/31 08:54:54;;;;;;;5.43;3.42;;;10.90;59.70;;;4.95;89.88;97150.09;4946604;28;20496;-52
2024/01/31 08:57:20;;;;;;;4.28;3.30;;;11.00;59.40;;;5.10;89.90;97145.50;4948328;28;20036;-53
2024/01/31 08:59:45;;;;;;;4.55;3.25;;;11.10;59.10;;;5.25;89.47;97147.25;4946836;28;20031;-54
2024/01/31 09:02:11;;;;;;;5.15;3.35;;;11.30;59.00;;;5.38;88.02;97143.88;4947658;28;20451;-51
2024/01/31 09:04:37;;;;;;;4.95;2.58;;;11.40;58.60;;;5.51;84.45;97138.69;4948526;28;20027;-54
2024/01/31 09:07:03;;;;;;;4.97;3.13;;;11.50;58.30;;;5.57;85.66;97144.00;4947503;28;20278;-52
2024/01/31 09:09:30;;;;;;;6.40;3.50;;;11.60;58.10;;;5.66;84.64;97139.38;4950037;28;20030;-50
2024/01/31 09:11:57;;;;;;;6.43;3.20;;;11.70;57.90;;;5.75;83.50;97140.84;4950080;28;20054;-51
2024/01/31 09:14:23;;;;;;;7.47;2.88;;;11.80;57.60;;;5.87;82.13;97135.84;4956390;28;20497;-50
2024/01/31 09:16:49;;;;;;;3.78;2.72;;;11.90;57.40;;;5.91;81.23;97123.84;4949593;28;20062;-53
2024/01/31 09:19:15;;;;;;;4.97;2.85;;;12.00;57.10;;;6.03;80.86;97130.22;4947725;28;20062;-52
2024/01/31 09:21:41;;;;;;;5.25;3.33;;;12.20;57.00;;;6.16;79.83;97131.28;4951903;28;20418;-54
2024/01/31 09:24:09;;;;;;;3.75;3.15;;;12.20;56.70;;;6.21;79.16;97139.47;4947788;28;20344;-50
2024/01/31 09:26:35;;;;;;;4.57;3.00;;;12.30;56.50;;;6.31;78.89;97136.44;4940053;28;20065;-52
2024/01/31 09:29:01;;;;;;;4.90;3.42;;;12.50;56.40;;;6.44;79.25;97139.91;4949151;28;20046;-50
2024/01/31 09:31:28;;;;;;;4.90;3.05;;;12.50;56.10;;;6.57;78.21;97143.59;4950317;28;20614;-49
2024/01/31 09:33:55;;;;;;;4.30;2.85;;;12.60;55.80;;;6.66;74.28;97143.22;4946531;28;20062;-54
2024/01/31 09:36:22;;;;;;;5.03;3.50;;;12.70;55.40;;;6.73;73.27;97144.03;4946044;28;20034;-51
2024/01/31 09:38:48;;;;;;;6.13;3.42;;;12.80;55.20;;;6.80;73.43;97143.22;4948259;28;20038;-54
2024/01/31 09:41:16;;;;;;;5.47;3.55;;;13.00;55.10;;;6.89;72.17;97134.06;4949511;28;20062;-50
2024/01/31 09:43:44;;;;;;;4.35;3.25;;;13.10;54.80;;;7.00;72.71;97136.13;4948325;28;20033;-54
2024/01/31 09:46:11;;;;;;;6.95;3.53;;;13.20;54.60;;;7.07;71.37;97136.13;4964599;28;20030;-53
2024/01/31 09:48:39;;;;;;;5.03;3.10;;;13.30;54.30;;;7.17;70.91;97137.31;4939939;28;20023;-54
2024/01/31 09:51:07;;;;;;;5.10;3.60;;;13.50;54.00;;;7.33;71.72;97133.47;4948524;28;20366;-53
2024/01/31 09:53:36;;;;;;;6.57;3.78;;;13.70;53.90;;;7.51;72.32;97129.34;4946474;28;20030;-51
2024/01/31 09:56:07;;;;;;;4.25;2.97;;;13.80;53.70;;;7.69;70.25;97132.16;4947493;28;20046;-49
2024/01/31 09:58:33;;;;;;;5.80;3.10;;;14.10;53.40;;;7.93;67.80;97128.00;4946922;28;20037;-50
2024/01/31 10:01:02;;;;;;;4.70;3.50;;;14.40;53.10;;;8.16;68.03;97126.69;4942639;28;20031;-50
2024/01/31 10:03:28;;;;;;;4.28;3.22;;;14.70;52.90;;;8.40;69.47;97120.69;4949552;28;20049;-53
2024/01/31 10:05:54;;;;;;;8.57;3.83;;;15.00;52.60;;;8.60;66.17;97120.53;4947947;28;20030;-49
2024/01/31 10:08:20;;;;;;;4.45;3.08;;;15.30;52.20;;;8.83;65.83;97121.81;4941856;28;20046;-50
2024/01/31 10:10:47;;;;;;;4.60;3.17;;;15.50;51.80;;;9.04;64.77;97121.44;4946167;28;20030;-50
2024/01/31 10:13:13;;;;;;;6.40;2.80;;;15.60;51.40;;;9.22;63.20;97123.34;4942010;28;20027;-50
2024/01/31 10:15:39;;;;;;;5.32;3.17;;;15.80;51.00;;;9.39;63.11;97126.25;4948299;28;20045;-53
2024/01/31 10:18:06;;;;;;;5.25;2.58;;;15.90;50.70;;;9.34;60.21;97118.94;4947605;28;20045;-52
2024/01/31 10:20:32;;;;;;;3.97;3.03;;;16.00;50.20;;;9.26;60.88;97119.22;4948545;28;20030;-53
2024/01/31 10:23:02;;;;;;;5.75;2.70;;;16.00;49.80;;;9.40;61.44;97118.06;4943662;28;20031;-54